West Stewartstown, NH (03597)

8:03 PM EST on January 18, 2017 (GMT -0500)
Laflamme Trailer Park | | Change Station
Active Advisory: Small Craft Advisory

Elev 889 ft 45.00 °N, 71.53 °W | Updated 22 seconds ago

Overcast
Overcast
27.8 °F
Feels Like 28 °F
N
2.0
Wind Variable Wind from SSW

Today
High -- | Low -- °F
--% Chance of Precip.
Yesterday
High -- | Low -- °F
Precip. -- in
Pressure 30.04 in
Visibility 10.0 miles
Clouds Mostly Cloudy 4500 ft
Overcast 6000 ft
Windchill 28 °F
Dew Point 23 °F
Humidity 81%
Rainfall 0.00 in
Snow Depth Not available.
7:18 AM 4:34 PM
Waning Gibbous, 58% visible
METAR KBML 190052Z AUTO 00000KT 10SM BKN045 OVC060 M02/M07 A2999 RMK AO2 SNE2355 SLP173 P0000 T10221067
Pressure 30.04 in
Visibility 10.0 miles
Clouds Mostly Cloudy 4500 ft
Overcast 6000 ft
Windchill 28 °F
Dew Point 23 °F
Humidity 81%
Rainfall 0.00 in
Snow Depth Not available.
7:18 AM 4:34 PM
Waning Gibbous, 58% visible
METAR KBML 190052Z AUTO 00000KT 10SM BKN045 OVC060 M02/M07 A2999 RMK AO2 SNE2355 SLP173 P0000 T10221067

Get Your Daily Forecast Email!

Thanks for signing up!

Be on the lookout for a verification email in your inbox.

You'll start receiving the daily forecast at 8 AM.

×

10-Day Weather Forecast

Almanac

Astronomy

Jan. 18, 2017 Rise Set
Actual Time
Civil Twilight
Nautical Twilight
Astronomical Twilight
Moon
Length of Visible Light
Length of Day
Tomorrow will be .
, % of the Moon is Illuminated

Today's Extremes

State Highs State Lows

Community

WunderPhotos

Upload Photos

1,962,540 photos uploaded!

WunderBlog® & News

Nearby

Air Quality

  Air Quality AQ Index Pollutant
Not available.

Snow Depth

Station Depth Elevation

Earthquake Activity

City Distance Mag. Time & Date
Minimum magnitude displayed is 2.5.

Coastal Water Temperatures

Place Temperature

Stations

Nearby Weather Stations

Station Location Temp. Windchill Dew Point Humidity Wind Precip. Elev Updated Type
                   

Watches & Warnings

Small Craft Advisory
Issued: 2:50 PM EST Jan. 18, 2017 – National Weather Service

... Small Craft Advisory now in effect until 3 PM EST Thursday...

* winds... east 10 to 20 kt with gusts up to 30 kt.

* Seas... 7 to 10 feet.

Precautionary/preparedness actions...

A Small Craft Advisory means that wind speeds of 25 to 33 knots
are expected to produce hazardous wave conditions to small craft.
Inexperienced mariners... especially those operating smaller
vessels should avoid navigating in these conditions.